createdAt,value
2022-08-12T00:00:06.266Z,2.40
2022-08-12T00:02:51.686Z,2.28
2022-08-12T00:05:44.493Z,2.50
2022-08-12T00:08:47.168Z,2.60
2022-08-12T00:11:34.269Z,2.13
2022-08-12T00:14:20.113Z,2.65
2022-08-12T00:17:07.036Z,2.53
2022-08-12T00:19:52.349Z,2.78
2022-08-12T00:22:38.871Z,2.50
2022-08-12T00:26:19.660Z,2.72
2022-08-12T00:28:32.922Z,2.33
2022-08-12T00:31:19.057Z,2.70
2022-08-12T00:34:05.157Z,2.40
2022-08-12T00:36:51.615Z,2.70
2022-08-12T00:39:39.985Z,2.85
2022-08-12T00:42:12.873Z,2.50
2022-08-12T00:44:44.689Z,2.55
2022-08-12T00:47:24.911Z,2.70
2022-08-12T00:49:56.893Z,2.50
2022-08-12T00:52:26.003Z,2.60
2022-08-12T00:54:59.184Z,2.17
2022-08-12T00:57:29.242Z,2.58
2022-08-12T01:00:02.629Z,2.75
2022-08-12T01:02:33.585Z,2.22
2022-08-12T01:05:23.404Z,2.45
2022-08-12T01:08:10.483Z,2.22
2022-08-12T01:10:58.690Z,2.42
2022-08-12T01:13:27.956Z,2.50
2022-08-12T01:16:01.280Z,2.42
2022-08-12T01:18:34.118Z,2.33
2022-08-12T01:21:12.098Z,2.75
2022-08-12T01:24:22.876Z,2.50
2022-08-12T01:26:55.834Z,2.63
2022-08-12T01:29:28.551Z,2.60
2022-08-12T01:32:05.218Z,2.75
2022-08-12T01:34:39.030Z,2.53
2022-08-12T01:37:11.038Z,2.47
2022-08-12T01:40:34.314Z,2.33
2022-08-12T01:42:40.947Z,2.60
2022-08-12T01:45:12.493Z,2.60
2022-08-12T01:47:53.693Z,2.78
2022-08-12T01:50:26.513Z,2.58
2022-08-12T01:53:05.487Z,2.60
2022-08-12T01:55:38.374Z,2.53
2022-08-12T01:58:26.297Z,2.90
2022-08-12T02:01:00.328Z,2.83
2022-08-12T02:04:05.174Z,2.50
2022-08-12T02:06:59.317Z,2.90
2022-08-12T02:10:03.218Z,2.50
2022-08-12T02:12:43.148Z,2.80
2022-08-12T02:15:28.556Z,2.65
2022-08-12T02:18:13.818Z,2.90
2022-08-12T02:20:52.791Z,3.63
2022-08-12T02:23:27.139Z,2.67
2022-08-12T02:25:59.428Z,2.88
2022-08-12T02:28:28.994Z,3.40
2022-08-12T02:31:03.048Z,2.80
2022-08-12T02:33:32.335Z,2.75
2022-08-12T02:36:03.173Z,2.97
2022-08-12T02:38:32.806Z,3.00
2022-08-12T02:41:05.060Z,2.70
2022-08-12T02:43:39.071Z,2.60
2022-08-12T02:46:14.844Z,2.95
2022-08-12T02:48:49.723Z,3.05
2022-08-12T02:51:21.546Z,3.20
2022-08-12T02:54:05.109Z,3.28
2022-08-12T02:56:37.110Z,3.17
2022-08-12T02:59:06.814Z,3.15
2022-08-12T03:01:47.467Z,3.40
2022-08-12T03:04:24.622Z,3.00
2022-08-12T03:07:03.018Z,3.10
2022-08-12T03:09:48.338Z,3.00
2022-08-12T03:12:33.728Z,3.33
2022-08-12T03:15:06.673Z,3.00
2022-08-12T03:17:44.424Z,3.33
2022-08-12T03:20:16.732Z,3.28
2022-08-12T03:22:46.330Z,3.40
2022-08-12T03:25:17.379Z,3.55
2022-08-12T03:27:56.020Z,3.33
2022-08-12T03:30:29.379Z,3.22
2022-08-12T03:33:00.083Z,3.40
2022-08-12T03:35:40.874Z,3.60
2022-08-12T03:38:16.220Z,3.72
2022-08-12T03:41:14.429Z,3.97
2022-08-12T03:44:06.718Z,3.67
2022-08-12T03:46:57.693Z,3.72
2022-08-12T03:49:45.805Z,4.20
2022-08-12T03:52:31.186Z,3.33
2022-08-12T03:55:17.008Z,3.80
2022-08-12T03:58:03.465Z,3.80
2022-08-12T04:00:34.521Z,4.00
2022-08-12T04:03:02.837Z,3.88
2022-08-12T04:05:54.490Z,3.35
2022-08-12T04:08:25.320Z,3.92
2022-08-12T04:11:11.970Z,3.90
2022-08-12T04:13:40.854Z,4.32
2022-08-12T04:16:10.809Z,4.15
2022-08-12T04:18:40.413Z,4.10
2022-08-12T04:21:10.867Z,4.38
2022-08-12T04:23:46.218Z,5.18
2022-08-12T04:26:16.507Z,4.13
2022-08-12T04:28:44.900Z,4.20
2022-08-12T04:31:14.346Z,4.10
2022-08-12T04:33:44.178Z,4.07
2022-08-12T04:36:13.593Z,3.88
2022-08-12T04:38:43.224Z,4.90
2022-08-12T04:41:18.202Z,4.25
2022-08-12T04:44:00.901Z,4.00
2022-08-12T04:46:30.908Z,3.97
2022-08-12T04:49:04.523Z,4.00
2022-08-12T04:51:34.878Z,3.72
2022-08-12T04:54:04.691Z,4.03
2022-08-12T04:56:35.654Z,4.00
2022-08-12T04:59:05.011Z,4.18
2022-08-12T05:01:33.323Z,4.18
2022-08-12T05:04:02.934Z,4.38
2022-08-12T05:06:31.107Z,4.50
2022-08-12T05:09:01.288Z,4.40
2022-08-12T05:11:29.528Z,4.93
2022-08-12T05:14:00.296Z,4.57
2022-08-12T05:16:32.479Z,4.45
2022-08-12T05:19:02.899Z,4.10
2022-08-12T05:21:30.944Z,4.18
2022-08-12T05:24:00.346Z,4.80
2022-08-12T05:26:29.480Z,4.55
2022-08-12T05:28:57.638Z,4.72
2022-08-12T05:31:47.239Z,4.47
2022-08-12T05:34:15.579Z,4.53
2022-08-12T05:36:44.877Z,4.32
2022-08-12T05:39:14.901Z,5.00
2022-08-12T05:41:44.484Z,5.07
2022-08-12T05:44:13.526Z,5.00
2022-08-12T05:46:42.262Z,5.65
2022-08-12T05:49:10.398Z,5.68
2022-08-12T05:51:41.046Z,5.90
2022-08-12T05:54:11.173Z,6.03
2022-08-12T05:56:41.618Z,6.03
2022-08-12T05:59:12.083Z,6.10
2022-08-12T06:02:10.550Z,6.00
2022-08-12T06:04:29.499Z,5.25
2022-08-12T06:06:57.714Z,5.95
2022-08-12T06:09:26.480Z,5.38
2022-08-12T06:12:05.761Z,5.47
2022-08-12T06:14:38.785Z,5.30
2022-08-12T06:17:09.646Z,6.07
2022-08-12T06:20:26.160Z,5.07
2022-08-12T06:22:26.813Z,5.15
2022-08-12T06:24:54.948Z,5.30
2022-08-12T06:27:24.478Z,5.50
2022-08-12T06:30:08.232Z,5.55
2022-08-12T06:32:51.862Z,5.53
2022-08-12T06:35:48.693Z,5.43
2022-08-12T06:38:17.272Z,5.53
2022-08-12T06:41:03.340Z,5.13
2022-08-12T06:44:06.629Z,5.07
2022-08-12T06:46:22.787Z,5.10
2022-08-12T06:48:55.708Z,5.38
2022-08-12T06:51:23.886Z,5.90
2022-08-12T06:53:51.930Z,5.70
2022-08-12T06:56:20.596Z,5.15
2022-08-12T06:58:50.065Z,5.82
2022-08-12T07:01:18.639Z,5.60
2022-08-12T07:03:47.077Z,5.82
2022-08-12T07:06:15.600Z,4.57
2022-08-12T07:08:44.627Z,5.20
2022-08-12T07:11:15.626Z,4.90
2022-08-12T07:14:10.243Z,4.70
2022-08-12T07:16:49.287Z,5.10
2022-08-12T07:19:17.642Z,5.72
2022-08-12T07:22:00.264Z,5.28
2022-08-12T07:24:31.041Z,5.43
2022-08-12T07:26:59.768Z,5.30
2022-08-12T07:29:58.287Z,5.43
2022-08-12T07:32:18.380Z,4.43
2022-08-12T07:34:47.453Z,5.25
2022-08-12T07:37:17.787Z,4.90
2022-08-12T07:39:51.303Z,4.40
2022-08-12T07:44:57.149Z,4.60
2022-08-12T07:47:26.954Z,5.18
2022-08-12T07:50:04.480Z,4.85
2022-08-12T07:52:34.922Z,5.00
2022-08-12T07:55:03.248Z,5.53
2022-08-12T07:57:32.458Z,4.78
2022-08-12T08:00:04.856Z,4.22
2022-08-12T08:02:36.463Z,4.35
2022-08-12T08:05:05.322Z,4.82
2022-08-12T08:07:33.580Z,4.78
2022-08-12T08:10:05.039Z,4.38
2022-08-12T08:12:50.557Z,3.70
2022-08-12T08:15:20.254Z,4.70
2022-08-12T08:18:02.608Z,4.18
2022-08-12T08:20:34.097Z,4.47
2022-08-12T08:23:05.736Z,4.10
2022-08-12T08:25:36.994Z,3.85
2022-08-12T08:28:09.120Z,3.65
2022-08-12T08:30:40.513Z,3.80
2022-08-12T08:33:22.835Z,3.80
2022-08-12T08:35:59.176Z,3.85
2022-08-12T08:38:31.755Z,4.20
2022-08-12T08:42:17.838Z,4.45
2022-08-12T08:44:08.179Z,4.18
2022-08-12T08:46:38.239Z,3.78
2022-08-12T08:49:08.714Z,3.60
2022-08-12T08:51:37.169Z,4.07
2022-08-12T08:54:06.917Z,3.95
2022-08-12T08:56:42.873Z,3.10
2022-08-12T08:59:12.368Z,3.53
2022-08-12T09:01:41.021Z,3.08
2022-08-12T09:05:08.389Z,2.90
2022-08-12T09:07:16.894Z,3.63
2022-08-12T09:10:03.401Z,3.17
2022-08-12T09:12:54.145Z,2.90
2022-08-12T09:15:34.998Z,3.08
2022-08-12T09:18:08.950Z,2.80
2022-08-12T09:20:42.520Z,2.60
2022-08-12T09:26:04.494Z,2.63
2022-08-12T09:28:34.469Z,2.70
2022-08-12T09:34:28.085Z,2.70
2022-08-12T09:36:58.329Z,2.47
2022-08-12T09:40:05.442Z,2.42
2022-08-12T09:42:57.710Z,2.28
2022-08-12T09:46:05.418Z,2.80
2022-08-12T09:48:19.871Z,2.78
2022-08-12T09:50:52.155Z,2.30
2022-08-12T09:53:29.498Z,2.50
2022-08-12T09:56:58.400Z,2.65
2022-08-12T09:59:01.677Z,2.63
2022-08-12T10:01:35.368Z,3.10
2022-08-12T10:04:19.135Z,2.53
2022-08-12T10:06:54.703Z,2.40
2022-08-12T10:09:28.671Z,2.63
2022-08-12T10:12:33.575Z,3.22
2022-08-12T10:15:02.250Z,2.72
2022-08-12T10:17:30.651Z,2.17
2022-08-12T10:19:59.771Z,2.60
2022-08-12T10:22:39.197Z,2.65
2022-08-12T10:26:36.752Z,2.45
2022-08-12T10:28:38.356Z,2.30
2022-08-12T10:31:16.375Z,2.42
2022-08-12T10:34:04.903Z,2.45
2022-08-12T10:36:40.388Z,2.40
2022-08-12T10:39:59.929Z,2.28
2022-08-12T10:42:29.058Z,2.35
2022-08-12T10:45:00.998Z,2.83
2022-08-12T10:48:15.966Z,2.50
2022-08-12T10:50:33.598Z,2.47
2022-08-12T10:53:09.548Z,2.10
2022-08-12T10:55:38.183Z,2.30
2022-08-12T10:58:15.147Z,2.50
2022-08-12T11:01:26.119Z,2.40
2022-08-12T11:04:22.961Z,2.45
2022-08-12T11:07:06.569Z,2.53
2022-08-12T11:09:41.698Z,2.17
2022-08-12T11:12:55.865Z,2.30
2022-08-12T11:15:18.479Z,2.42
2022-08-12T11:17:52.345Z,2.55
2022-08-12T11:20:23.925Z,2.30
2022-08-12T11:22:59.040Z,2.30
2022-08-12T11:25:56.697Z,2.33
2022-08-12T11:28:17.430Z,2.30
2022-08-12T11:31:03.824Z,2.22
2022-08-12T11:34:05.524Z,2.08
2022-08-12T11:36:22.088Z,2.20
2022-08-12T11:38:51.278Z,2.50
2022-08-12T11:41:28.084Z,2.28
2022-08-12T11:44:00.504Z,2.40
2022-08-12T11:46:51.383Z,2.65
2022-08-12T11:49:30.593Z,2.25
2022-08-12T11:52:00.150Z,2.38
2022-08-12T11:54:29.689Z,2.50
2022-08-12T11:57:00.005Z,2.33
2022-08-12T12:02:20.579Z,2.67
2022-08-12T12:04:53.111Z,2.35
2022-08-12T12:08:36.756Z,2.40
2022-08-12T12:10:14.234Z,2.33
2022-08-12T12:12:49.625Z,2.60
2022-08-12T12:15:25.068Z,2.30
2022-08-12T12:18:06.788Z,2.45
2022-08-12T12:20:35.827Z,2.50
2022-08-12T12:23:04.373Z,2.30
2022-08-12T12:26:07.412Z,2.22
2022-08-12T12:28:36.902Z,2.35
2022-08-12T12:31:15.155Z,2.10
2022-08-12T12:33:58.180Z,2.40
2022-08-12T12:36:30.111Z,2.13
2022-08-12T12:42:43.101Z,2.00
2022-08-12T12:44:25.906Z,2.50
2022-08-12T12:47:26.053Z,2.35
2022-08-12T12:49:56.636Z,2.40
2022-08-12T12:52:27.070Z,2.53
2022-08-12T12:54:58.634Z,2.53
2022-08-12T12:57:58.841Z,2.03
2022-08-12T13:00:16.791Z,2.03
2022-08-12T13:02:53.681Z,2.72
2022-08-12T13:05:27.736Z,2.30
2022-08-12T13:08:00.598Z,2.30
2022-08-12T13:10:37.022Z,2.42
2022-08-12T13:14:08.191Z,2.40
2022-08-12T13:15:59.404Z,2.20
2022-08-12T13:18:36.685Z,2.20
2022-08-12T13:21:15.823Z,1.98
2022-08-12T13:23:57.957Z,2.40
2022-08-12T13:26:26.187Z,2.30
2022-08-12T13:28:56.617Z,2.33
2022-08-12T13:31:24.950Z,2.40
2022-08-12T13:34:32.000Z,2.47
2022-08-12T13:36:43.487Z,2.25
2022-08-12T13:39:13.046Z,2.28
2022-08-12T13:41:44.662Z,2.00
2022-08-12T13:44:13.130Z,2.38
2022-08-12T13:46:42.187Z,2.03
2022-08-12T13:49:20.435Z,1.95
2022-08-12T13:52:03.030Z,2.15
2022-08-12T13:54:32.914Z,2.53
2022-08-12T13:57:01.571Z,2.33
2022-08-12T13:59:30.974Z,2.28
2022-08-12T14:02:18.341Z,2.30
2022-08-12T14:04:56.649Z,2.70
2022-08-12T14:07:27.538Z,2.50
2022-08-12T14:10:16.111Z,1.73
2022-08-12T14:12:54.063Z,2.10
2022-08-12T14:15:34.985Z,2.13
2022-08-12T14:18:10.356Z,2.00
2022-08-12T14:20:43.667Z,2.00
2022-08-12T14:23:34.251Z,2.17
2022-08-12T14:26:03.533Z,2.15
2022-08-12T14:28:34.895Z,2.10
2022-08-12T14:33:48.969Z,2.15
2022-08-12T14:36:21.677Z,1.90
2022-08-12T14:38:54.182Z,2.05
2022-08-12T14:41:24.136Z,1.88
2022-08-12T14:44:56.865Z,1.80
2022-08-12T14:46:55.828Z,2.00
2022-08-12T14:50:37.502Z,1.80
2022-08-12T14:53:31.682Z,1.95
2022-08-12T14:57:56.657Z,2.20
2022-08-12T15:00:50.700Z,2.10
2022-08-12T15:03:23.315Z,1.88
2022-08-12T15:06:05.296Z,1.90
2022-08-12T15:08:37.093Z,1.73
2022-08-12T15:11:09.941Z,1.80
2022-08-12T15:13:39.724Z,1.92
2022-08-12T15:16:08.432Z,1.98
2022-08-12T15:18:38.026Z,2.22
2022-08-12T15:21:11.611Z,1.67
2022-08-12T15:23:45.745Z,1.90
2022-08-12T15:26:35.439Z,1.80
2022-08-12T15:29:06.637Z,2.03
2022-08-12T15:31:59.837Z,2.00
2022-08-12T15:34:30.651Z,2.20
2022-08-12T15:36:58.888Z,2.10
2022-08-12T15:39:28.086Z,2.88
2022-08-12T15:42:01.993Z,2.42
2022-08-12T15:44:38.654Z,2.88
2022-08-12T15:47:11.054Z,1.90
2022-08-12T15:49:54.441Z,1.83
2022-08-12T15:52:30.805Z,1.80
2022-08-12T15:55:05.893Z,2.00
2022-08-12T15:57:53.269Z,1.50
2022-08-12T16:00:32.919Z,1.52
2022-08-12T16:03:05.726Z,1.77
2022-08-12T16:06:13.107Z,3.95
2022-08-12T16:08:27.410Z,2.45
2022-08-12T16:10:56.797Z,2.17
2022-08-12T16:13:34.469Z,1.80
2022-08-12T16:16:12.251Z,1.83
2022-08-12T16:18:51.441Z,1.70
2022-08-12T16:21:51.991Z,1.65
2022-08-12T16:24:08.486Z,1.55
2022-08-12T16:26:40.766Z,1.80
2022-08-12T16:29:15.040Z,1.67
2022-08-12T16:31:44.030Z,1.65
2022-08-12T16:34:26.187Z,2.20
2022-08-12T16:39:40.162Z,1.90
2022-08-12T16:42:27.809Z,1.80
2022-08-12T16:44:59.443Z,1.63
2022-08-12T16:47:28.207Z,1.77
2022-08-12T16:49:57.867Z,2.00
2022-08-12T16:52:26.385Z,1.73
2022-08-12T16:54:55.208Z,1.65
2022-08-12T16:57:35.082Z,1.65
2022-08-12T17:00:07.074Z,1.85
2022-08-12T17:02:37.814Z,1.80
2022-08-12T17:05:14.968Z,1.95
2022-08-12T17:07:52.070Z,1.90
2022-08-12T17:10:35.957Z,1.92
2022-08-12T17:13:10.289Z,1.83
2022-08-12T17:15:56.850Z,1.92
2022-08-12T17:18:44.008Z,2.03
2022-08-12T17:21:40.604Z,2.00
2022-08-12T17:24:21.655Z,1.80
2022-08-12T17:26:53.843Z,1.80
2022-08-12T17:29:24.288Z,1.83
2022-08-12T17:32:14.364Z,1.90
2022-08-12T17:35:00.131Z,1.88
2022-08-12T17:37:28.616Z,1.80
2022-08-12T17:40:07.482Z,2.08
2022-08-12T17:42:47.647Z,1.90
2022-08-12T17:45:19.270Z,1.92
2022-08-12T17:48:01.730Z,2.20
2022-08-12T17:50:35.936Z,2.17
2022-08-12T17:53:05.517Z,2.05
2022-08-12T17:55:44.004Z,2.20
2022-08-12T17:58:15.931Z,2.97
2022-08-12T18:00:45.163Z,3.67
2022-08-12T18:04:04.728Z,3.10
2022-08-12T18:06:13.760Z,4.28
2022-08-12T18:08:53.398Z,4.80
2022-08-12T18:12:03.892Z,3.40
2022-08-12T18:14:27.901Z,2.30
2022-08-12T18:17:00.652Z,2.33
2022-08-12T18:20:04.091Z,2.67
2022-08-12T18:22:22.104Z,2.55
2022-08-12T18:25:04.273Z,2.13
2022-08-12T18:27:46.757Z,2.50
2022-08-12T18:30:28.930Z,2.28
2022-08-12T18:33:03.627Z,2.20
2022-08-12T18:35:46.853Z,2.10
2022-08-12T18:38:22.572Z,1.90
2022-08-12T18:41:21.826Z,2.20
2022-08-12T18:44:00.050Z,1.85
2022-08-12T18:46:35.931Z,2.10
2022-08-12T18:49:17.006Z,2.05
2022-08-12T18:51:55.073Z,2.30
2022-08-12T18:54:33.354Z,2.13
2022-08-12T18:57:16.267Z,2.42
2022-08-12T19:00:01.054Z,1.92
2022-08-12T19:02:36.183Z,2.13
2022-08-12T19:05:10.723Z,2.25
2022-08-12T19:07:58.144Z,2.28
2022-08-12T19:10:30.570Z,2.20
2022-08-12T19:13:24.294Z,2.17
2022-08-12T19:15:54.649Z,2.00
2022-08-12T19:18:30.187Z,2.10
2022-08-12T19:21:11.710Z,2.15
2022-08-12T19:24:05.213Z,2.22
2022-08-12T19:26:33.445Z,2.20
2022-08-12T19:29:05.210Z,2.30
2022-08-12T19:31:58.800Z,2.30
2022-08-12T19:37:27.409Z,2.20
2022-08-12T19:40:20.583Z,2.13
2022-08-12T19:43:01.935Z,2.40
2022-08-12T19:45:43.628Z,2.35
2022-08-12T19:48:18.962Z,2.70
2022-08-12T19:50:49.930Z,2.50
2022-08-12T19:53:18.984Z,2.70
2022-08-12T19:55:52.746Z,3.00
2022-08-12T19:58:22.147Z,2.80
2022-08-12T20:00:54.337Z,2.60
2022-08-12T20:03:40.231Z,2.35
2022-08-12T20:06:13.949Z,2.60
2022-08-12T20:08:48.893Z,2.58
2022-08-12T20:12:09.195Z,2.63
2022-08-12T20:14:11.914Z,2.60
2022-08-12T20:16:52.021Z,2.92
2022-08-12T20:19:24.610Z,2.90
2022-08-12T20:22:14.408Z,3.10
2022-08-12T20:24:45.909Z,2.60
2022-08-12T20:27:29.181Z,2.75
2022-08-12T20:30:05.933Z,2.60
2022-08-12T20:32:37.637Z,2.72
2022-08-12T20:35:24.375Z,3.00
2022-08-12T20:38:07.297Z,2.92
2022-08-12T20:40:47.928Z,2.90
2022-08-12T20:45:57.392Z,3.28
2022-08-12T20:48:29.420Z,4.20
2022-08-12T20:51:04.672Z,3.53
2022-08-12T20:53:54.221Z,3.20
2022-08-12T20:56:31.135Z,3.08
2022-08-12T20:59:03.320Z,2.88
2022-08-12T21:01:46.609Z,2.83
2022-08-12T21:04:35.669Z,3.17
2022-08-12T21:07:09.157Z,3.40
2022-08-12T21:09:43.927Z,3.30
2022-08-12T21:12:31.132Z,3.13
2022-08-12T21:15:22.909Z,3.88
2022-08-12T21:18:08.970Z,4.55
2022-08-12T21:20:49.649Z,4.18
2022-08-12T21:23:19.086Z,4.20
2022-08-12T21:25:48.245Z,3.03
2022-08-12T21:28:30.879Z,3.20
2022-08-12T21:32:37.871Z,2.88
2022-08-12T21:34:07.713Z,3.05
2022-08-12T21:36:39.866Z,3.00
2022-08-12T21:39:19.105Z,2.15
2022-08-12T21:41:52.027Z,2.70
2022-08-12T21:44:24.536Z,2.63
2022-08-12T21:47:20.023Z,2.58
2022-08-12T21:50:04.019Z,2.40
2022-08-12T21:52:36.764Z,2.70
2022-08-12T21:55:08.366Z,2.17
2022-08-12T21:57:51.286Z,2.25
2022-08-12T22:00:31.499Z,2.40
2022-08-12T22:03:25.146Z,2.35
2022-08-12T22:06:31.135Z,2.42
2022-08-12T22:09:16.374Z,2.53
2022-08-12T22:11:56.066Z,2.88
2022-08-12T22:14:29.107Z,2.83
2022-08-12T22:16:58.752Z,3.47
2022-08-12T22:19:35.073Z,2.50
2022-08-12T22:22:04.124Z,2.55
2022-08-12T22:24:33.439Z,2.33
2022-08-12T22:27:18.153Z,2.60
2022-08-12T22:30:09.534Z,2.72
2022-08-12T22:35:47.306Z,4.10
2022-08-12T22:38:23.761Z,4.18
2022-08-12T22:40:56.840Z,3.97
2022-08-12T22:43:58.917Z,4.07
2022-08-12T22:46:53.060Z,4.13
2022-08-12T22:49:25.984Z,4.07
2022-08-12T22:52:10.512Z,3.20
2022-08-12T22:54:46.363Z,3.50
2022-08-12T22:57:53.507Z,3.63
2022-08-12T23:00:24.148Z,3.90
2022-08-12T23:03:03.077Z,4.13
2022-08-12T23:05:57.075Z,4.38
2022-08-12T23:08:30.167Z,4.88
2022-08-12T23:11:00.251Z,6.22
2022-08-12T23:13:49.134Z,6.45
2022-08-12T23:16:31.270Z,6.45
2022-08-12T23:19:09.939Z,7.72
2022-08-12T23:22:06.142Z,7.80
2022-08-12T23:24:53.687Z,8.35
2022-08-12T23:27:50.616Z,6.93
2022-08-12T23:30:31.699Z,6.00
2022-08-12T23:33:03.002Z,5.72
2022-08-12T23:35:58.789Z,5.38
2022-08-12T23:38:32.251Z,5.20
2022-08-12T23:41:05.699Z,4.15
2022-08-12T23:43:38.861Z,4.25
2022-08-12T23:46:10.665Z,3.72
2022-08-12T23:48:39.970Z,3.70
2022-08-12T23:51:23.081Z,3.65
2022-08-12T23:53:56.327Z,3.70
2022-08-12T23:56:34.047Z,3.40
2022-08-12T23:59:03.503Z,3.13
